createdAt,value
2018-08-25T00:00:43.507Z,15.20
2018-08-25T00:03:12.092Z,15.20
2018-08-25T00:05:40.799Z,15.20
2018-08-25T00:08:09.480Z,15.20
2018-08-25T00:10:38.170Z,15.10
2018-08-25T00:13:06.801Z,15.00
2018-08-25T00:15:35.515Z,15.00
2018-08-25T00:18:04.175Z,15.00
2018-08-25T00:20:32.838Z,15.10
2018-08-25T00:23:01.524Z,15.10
2018-08-25T00:25:30.363Z,15.10
2018-08-25T00:27:58.952Z,15.20
2018-08-25T00:30:32.715Z,15.20
2018-08-25T00:33:01.520Z,15.20
2018-08-25T00:35:30.210Z,15.30
2018-08-25T00:37:58.855Z,15.30
2018-08-25T00:40:27.519Z,15.30
2018-08-25T00:42:56.132Z,15.30
2018-08-25T00:45:25.006Z,15.20
2018-08-25T00:47:53.732Z,15.10
2018-08-25T00:50:22.340Z,15.10
2018-08-25T00:52:50.967Z,15.00
2018-08-25T00:55:19.812Z,15.10
2018-08-25T00:57:48.383Z,15.10
2018-08-25T01:00:16.977Z,15.10
2018-08-25T01:02:45.594Z,15.10
2018-08-25T01:05:14.555Z,15.00
2018-08-25T01:07:43.250Z,14.90
2018-08-25T01:10:11.886Z,15.00
2018-08-25T01:12:40.547Z,15.00
2018-08-25T01:15:09.232Z,15.10
2018-08-25T01:17:37.894Z,15.10
2018-08-25T01:20:06.855Z,15.00
2018-08-25T01:22:35.439Z,15.00
2018-08-25T01:25:04.195Z,15.00
2018-08-25T01:27:32.819Z,15.00
2018-08-25T01:30:01.454Z,15.00
2018-08-25T01:32:30.102Z,15.10
2018-08-25T01:34:59.039Z,15.00
2018-08-25T01:37:27.660Z,15.00
2018-08-25T01:39:56.367Z,15.00
2018-08-25T01:42:25.068Z,15.10
2018-08-25T01:44:53.735Z,15.00
2018-08-25T01:47:22.343Z,15.00
2018-08-25T01:49:51.010Z,15.00
2018-08-25T01:52:19.590Z,15.00
2018-08-25T01:54:48.434Z,15.10
2018-08-25T01:57:17.096Z,15.00
2018-08-25T01:59:45.765Z,15.00
2018-08-25T02:02:14.392Z,15.00
2018-08-25T02:04:42.998Z,15.00
2018-08-25T02:07:11.575Z,14.90
2018-08-25T02:09:40.190Z,14.90
2018-08-25T02:12:08.855Z,14.90
2018-08-25T02:14:37.466Z,14.90
2018-08-25T02:17:06.215Z,14.90
2018-08-25T02:19:34.799Z,14.80
2018-08-25T02:22:03.417Z,14.70
2018-08-25T02:24:33.026Z,14.70
2018-08-25T02:27:01.670Z,14.70
2018-08-25T02:29:30.251Z,14.70
2018-08-25T02:31:58.858Z,14.80
2018-08-25T02:34:27.747Z,14.80
2018-08-25T02:36:56.350Z,14.90
2018-08-25T02:39:24.954Z,14.90
2018-08-25T02:41:53.594Z,14.90
2018-08-25T02:44:22.569Z,14.90
2018-08-25T02:46:51.235Z,14.80
2018-08-25T02:49:19.840Z,14.80
2018-08-25T02:51:48.386Z,14.80
2018-08-25T02:54:17.024Z,14.80
2018-08-25T02:56:45.588Z,14.70
2018-08-25T02:59:14.262Z,14.70
2018-08-25T03:01:42.851Z,14.70
2018-08-25T03:04:11.460Z,14.80
2018-08-25T03:06:40.046Z,14.80
2018-08-25T03:09:10.359Z,14.90
2018-08-25T03:11:38.983Z,14.90
2018-08-25T03:14:07.968Z,14.90
2018-08-25T03:16:36.575Z,14.80
2018-08-25T03:19:05.242Z,14.80
2018-08-25T03:21:33.814Z,14.80
2018-08-25T03:24:02.680Z,14.80
2018-08-25T03:26:31.275Z,14.80
2018-08-25T03:28:59.902Z,14.80
2018-08-25T03:31:28.466Z,14.80
2018-08-25T03:34:02.303Z,14.80
2018-08-25T03:36:30.900Z,14.90
2018-08-25T03:38:59.527Z,14.90
2018-08-25T03:41:28.171Z,14.90
2018-08-25T03:43:56.770Z,14.80
2018-08-25T03:46:25.423Z,14.80
2018-08-25T03:48:54.020Z,14.70
2018-08-25T03:51:22.620Z,14.80
2018-08-25T03:53:51.274Z,14.80
2018-08-25T03:56:19.886Z,14.80
2018-08-25T03:58:48.476Z,14.70
2018-08-25T04:01:17.072Z,14.60
2018-08-25T04:03:45.721Z,14.60
2018-08-25T04:06:14.347Z,14.70
2018-08-25T04:08:42.979Z,14.70
2018-08-25T04:11:11.679Z,14.70
2018-08-25T04:13:40.287Z,14.70
2018-08-25T04:16:08.967Z,14.70
2018-08-25T04:18:37.744Z,14.80
2018-08-25T04:21:06.660Z,14.80
2018-08-25T04:23:35.312Z,14.70
2018-08-25T04:26:04.126Z,14.70
2018-08-25T04:28:32.730Z,14.70
2018-08-25T04:31:01.674Z,14.80
2018-08-25T04:33:31.004Z,14.80
2018-08-25T04:35:59.699Z,14.80
2018-08-25T04:38:28.436Z,14.70
2018-08-25T04:40:57.140Z,14.70
2018-08-25T04:43:25.806Z,14.80
2018-08-25T04:45:54.624Z,14.90
2018-08-25T04:48:23.370Z,15.10
2018-08-25T04:50:52.003Z,15.10
2018-08-25T04:53:20.707Z,14.90
2018-08-25T04:55:49.407Z,14.90
2018-08-25T04:58:18.116Z,14.90
2018-08-25T05:00:46.715Z,14.90
2018-08-25T05:03:15.347Z,15.00
2018-08-25T05:05:44.055Z,15.00
2018-08-25T05:08:12.765Z,15.00
2018-08-25T05:10:41.451Z,15.00
2018-08-25T05:13:10.158Z,15.00
2018-08-25T05:15:38.891Z,15.00
2018-08-25T05:18:07.647Z,15.10
2018-08-25T05:20:36.439Z,15.10
2018-08-25T05:23:05.202Z,15.10
2018-08-25T05:25:33.910Z,15.00
2018-08-25T05:28:02.888Z,14.90
2018-08-25T05:30:31.647Z,14.90
2018-08-25T05:33:00.408Z,14.90
2018-08-25T05:35:29.347Z,14.90
2018-08-25T05:37:58.148Z,15.00
2018-08-25T05:40:26.959Z,15.00
2018-08-25T05:42:55.698Z,15.00
2018-08-25T05:45:24.526Z,15.00
2018-08-25T05:47:53.349Z,15.00
2018-08-25T05:50:22.087Z,15.00
2018-08-25T05:52:50.897Z,15.00
2018-08-25T05:55:19.853Z,15.00
2018-08-25T05:57:48.690Z,15.00
2018-08-25T06:00:17.379Z,15.00
2018-08-25T06:02:46.044Z,15.00
2018-08-25T06:05:14.797Z,14.90
2018-08-25T06:07:43.495Z,14.90
2018-08-25T06:10:12.159Z,14.90
2018-08-25T06:12:40.848Z,15.00
2018-08-25T06:15:09.645Z,15.10
2018-08-25T06:17:38.866Z,15.10
2018-08-25T06:20:07.791Z,15.20
2018-08-25T06:22:36.475Z,15.20
2018-08-25T06:25:06.145Z,15.30
2018-08-25T06:27:34.874Z,15.30
2018-08-25T06:30:03.665Z,15.40
2018-08-25T06:32:32.511Z,15.50
2018-08-25T06:35:14.823Z,15.50
2018-08-25T06:37:44.093Z,15.60
2018-08-25T06:40:12.935Z,15.60
2018-08-25T06:42:41.714Z,15.60
2018-08-25T06:45:10.446Z,15.60
2018-08-25T06:47:39.280Z,15.50
2018-08-25T06:50:08.369Z,15.50
2018-08-25T06:52:37.066Z,15.50
2018-08-25T06:55:06.003Z,15.60
2018-08-25T06:57:34.738Z,15.70
2018-08-25T07:00:03.372Z,15.70
2018-08-25T07:02:32.012Z,15.80
2018-08-25T07:05:01.753Z,15.90
2018-08-25T07:07:30.983Z,15.80
2018-08-25T07:09:59.794Z,15.90
2018-08-25T07:12:28.716Z,15.90
2018-08-25T07:14:57.440Z,16.00
2018-08-25T07:17:26.170Z,16.10
2018-08-25T07:19:54.877Z,16.20
2018-08-25T07:22:23.628Z,16.10
2018-08-25T07:24:52.279Z,16.20
2018-08-25T07:27:21.003Z,16.20
2018-08-25T07:29:49.667Z,16.30
2018-08-25T07:32:18.446Z,16.30
2018-08-25T07:34:46.991Z,16.40
2018-08-25T07:37:15.695Z,16.30
2018-08-25T07:39:44.241Z,16.30
2018-08-25T07:42:12.930Z,16.30
2018-08-25T07:44:41.627Z,16.40
2018-08-25T07:47:10.274Z,16.40
2018-08-25T07:49:38.977Z,16.40
2018-08-25T07:52:07.699Z,16.50
2018-08-25T07:54:36.280Z,16.50
2018-08-25T07:57:04.951Z,16.60
2018-08-25T07:59:33.670Z,16.70
2018-08-25T08:02:02.378Z,16.80
2018-08-25T08:04:31.632Z,16.80
2018-08-25T08:07:00.278Z,16.70
2018-08-25T08:09:29.059Z,16.60
2018-08-25T08:11:57.795Z,16.60
2018-08-25T08:14:26.411Z,16.60
2018-08-25T08:16:55.103Z,16.60
2018-08-25T08:19:23.864Z,16.70
2018-08-25T08:21:52.564Z,16.90
2018-08-25T08:24:21.268Z,17.00
2018-08-25T08:26:50.131Z,17.10
2018-08-25T08:29:19.038Z,17.30
2018-08-25T08:31:47.772Z,17.40
2018-08-25T08:34:16.568Z,17.60
2018-08-25T08:36:45.378Z,17.80
2018-08-25T08:39:14.127Z,17.80
2018-08-25T08:41:43.087Z,17.90
2018-08-25T08:44:11.751Z,17.90
2018-08-25T08:46:40.587Z,17.80
2018-08-25T08:49:09.351Z,17.90
2018-08-25T08:51:38.555Z,17.90
2018-08-25T08:54:07.376Z,17.90
2018-08-25T08:56:36.089Z,18.00
2018-08-25T08:59:04.799Z,17.90
2018-08-25T09:01:33.527Z,17.80
2018-08-25T09:04:02.327Z,17.80
2018-08-25T09:06:30.959Z,17.70
2018-08-25T09:08:59.697Z,17.70
2018-08-25T09:11:28.376Z,17.70
2018-08-25T09:14:01.923Z,17.60
2018-08-25T09:16:30.606Z,17.70
2018-08-25T09:18:59.295Z,17.60
2018-08-25T09:21:27.927Z,17.70
2018-08-25T09:23:56.497Z,17.60
2018-08-25T09:26:25.188Z,17.60
2018-08-25T09:28:53.810Z,17.60
2018-08-25T09:31:22.458Z,17.60
2018-08-25T09:33:52.051Z,17.60
2018-08-25T09:36:21.417Z,17.50
2018-08-25T09:38:50.533Z,17.60
2018-08-25T09:41:19.657Z,17.60
2018-08-25T09:43:49.511Z,17.70
2018-08-25T09:46:32.965Z,17.70
2018-08-25T09:49:01.775Z,17.70
2018-08-25T09:51:33.351Z,17.80
2018-08-25T09:54:02.567Z,17.80
2018-08-25T09:56:31.904Z,17.80
2018-08-25T09:59:04.837Z,17.80
2018-08-25T10:01:38.041Z,17.80
2018-08-25T10:04:06.856Z,17.70
2018-08-25T10:06:35.646Z,17.60
2018-08-25T10:09:05.126Z,17.50
2018-08-25T10:11:35.476Z,17.40
2018-08-25T10:14:04.941Z,17.30
2018-08-25T10:16:33.923Z,17.30
2018-08-25T10:19:03.040Z,17.20
2018-08-25T10:21:31.897Z,17.10
2018-08-25T10:24:00.760Z,17.00
2018-08-25T10:26:29.717Z,16.90
2018-08-25T10:28:59.979Z,16.80
2018-08-25T10:31:42.575Z,16.80
2018-08-25T10:36:48.209Z,16.60
2018-08-25T10:39:18.748Z,16.40
2018-08-25T10:41:47.684Z,16.30
2018-08-25T10:44:30.180Z,16.20
2018-08-25T10:46:59.243Z,16.00
2018-08-25T10:49:28.499Z,15.90
2018-08-25T10:51:57.267Z,15.90
2018-08-25T10:54:26.459Z,15.90
2018-08-25T10:56:56.089Z,15.80
2018-08-25T10:59:25.058Z,15.80
2018-08-25T11:01:53.772Z,15.80
2018-08-25T11:04:27.612Z,15.80
2018-08-25T11:06:57.190Z,15.80
2018-08-25T11:09:26.476Z,15.70
2018-08-25T11:11:55.203Z,15.70
2018-08-25T11:14:24.330Z,15.80
2018-08-25T11:16:53.836Z,15.90
2018-08-25T11:19:23.013Z,15.90
2018-08-25T11:21:51.999Z,15.90
2018-08-25T11:24:21.908Z,15.70
2018-08-25T11:26:51.380Z,15.70
2018-08-25T11:29:20.582Z,15.70
2018-08-25T11:31:49.412Z,15.70
2018-08-25T11:34:18.295Z,15.50
2018-08-25T11:36:47.583Z,15.50
2018-08-25T11:39:16.370Z,15.40
2018-08-25T11:41:45.152Z,15.30
2018-08-25T11:44:13.830Z,15.20
2018-08-25T11:46:42.519Z,15.20
2018-08-25T11:49:11.601Z,15.20
2018-08-25T11:51:40.514Z,15.20
2018-08-25T11:54:09.547Z,15.20
2018-08-25T11:56:38.199Z,15.20
2018-08-25T11:59:06.996Z,15.20
2018-08-25T12:01:51.318Z,15.10
2018-08-25T12:04:20.108Z,15.10
2018-08-25T12:06:48.872Z,15.10
2018-08-25T12:09:18.001Z,15.20
2018-08-25T12:11:46.951Z,15.30
2018-08-25T12:14:15.741Z,15.40
2018-08-25T12:16:44.501Z,15.40
2018-08-25T12:19:13.223Z,15.40
2018-08-25T12:21:42.055Z,15.40
2018-08-25T12:24:10.886Z,15.40
2018-08-25T12:26:39.666Z,15.40
2018-08-25T12:29:08.358Z,15.30
2018-08-25T12:31:37.175Z,15.30
2018-08-25T12:34:05.966Z,15.40
2018-08-25T12:36:34.695Z,15.30
2018-08-25T12:39:04.590Z,15.30
2018-08-25T12:41:33.555Z,15.30
2018-08-25T12:44:02.301Z,15.30
2018-08-25T12:46:31.077Z,15.30
2018-08-25T12:48:59.740Z,15.20
2018-08-25T12:51:28.617Z,15.10
2018-08-25T12:53:57.300Z,15.10
2018-08-25T12:56:25.998Z,15.00
2018-08-25T12:58:54.741Z,15.00
2018-08-25T13:01:23.462Z,15.10
2018-08-25T13:03:52.508Z,15.10
2018-08-25T13:06:21.407Z,15.10
2018-08-25T13:08:50.171Z,15.20
2018-08-25T13:11:19.191Z,15.20
2018-08-25T13:13:49.321Z,15.20
2018-08-25T13:16:18.138Z,15.20
2018-08-25T13:18:46.959Z,15.20
2018-08-25T13:21:15.646Z,15.20
2018-08-25T13:23:44.367Z,15.20
2018-08-25T13:26:13.714Z,15.20
2018-08-25T13:28:42.534Z,15.20
2018-08-25T13:31:11.686Z,15.20
2018-08-25T13:33:40.737Z,15.10
2018-08-25T13:36:09.746Z,15.10
2018-08-25T13:38:38.976Z,15.10
2018-08-25T13:41:15.231Z,15.10
2018-08-25T13:43:45.488Z,15.10
2018-08-25T13:46:14.752Z,15.10
2018-08-25T13:48:44.304Z,15.00
2018-08-25T13:51:13.977Z,15.00
2018-08-25T13:53:42.797Z,15.00
2018-08-25T13:56:21.377Z,14.90
2018-08-25T13:58:56.055Z,14.90
2018-08-25T14:01:31.831Z,14.90
2018-08-25T14:04:07.730Z,15.00
2018-08-25T14:06:38.635Z,15.00
2018-08-25T14:09:12.964Z,15.00
2018-08-25T14:11:44.398Z,15.00
2018-08-25T14:14:25.966Z,15.00
2018-08-25T14:17:01.832Z,14.90
2018-08-25T14:19:33.312Z,14.90
2018-08-25T14:22:13.378Z,14.80
2018-08-25T14:24:59.993Z,14.80
2018-08-25T14:27:29.237Z,14.80
2018-08-25T14:29:58.333Z,14.80
2018-08-25T14:32:34.643Z,14.80
2018-08-25T14:35:03.799Z,14.90
2018-08-25T14:37:32.795Z,14.90
2018-08-25T14:40:01.742Z,14.90
2018-08-25T14:42:30.706Z,14.90
2018-08-25T14:45:04.811Z,14.80
2018-08-25T14:47:33.869Z,14.80
2018-08-25T14:50:06.324Z,14.70
2018-08-25T14:52:42.232Z,14.70
2018-08-25T14:55:17.069Z,14.70
2018-08-25T15:00:33.019Z,14.70
2018-08-25T15:03:02.130Z,14.70
2018-08-25T15:05:31.145Z,14.60
2018-08-25T15:08:02.850Z,14.60
2018-08-25T15:10:45.486Z,14.50
2018-08-25T15:13:14.498Z,14.50
2018-08-25T15:15:43.385Z,14.50
2018-08-25T15:18:12.267Z,14.40
2018-08-25T15:20:41.398Z,14.30
2018-08-25T15:23:10.240Z,14.30
2018-08-25T15:25:40.200Z,14.30
2018-08-25T15:28:11.588Z,14.20
2018-08-25T15:30:40.428Z,14.00
2018-08-25T15:33:09.572Z,14.00
2018-08-25T15:35:38.356Z,14.00
2018-08-25T15:38:07.561Z,14.00
2018-08-25T15:40:36.743Z,14.00
2018-08-25T15:43:05.564Z,14.00
2018-08-25T15:45:34.315Z,14.00
2018-08-25T15:48:03.107Z,14.00
2018-08-25T15:50:31.838Z,14.00
2018-08-25T15:53:00.524Z,14.00
2018-08-25T15:55:29.348Z,14.10
2018-08-25T15:57:58.394Z,14.10
2018-08-25T16:00:27.103Z,14.00
2018-08-25T16:02:55.876Z,13.90
2018-08-25T16:05:25.159Z,13.80
2018-08-25T16:07:53.947Z,13.80
2018-08-25T16:10:22.732Z,13.90
2018-08-25T16:12:51.440Z,13.90
2018-08-25T16:15:20.502Z,13.90
2018-08-25T16:17:49.415Z,14.00
2018-08-25T16:20:18.200Z,14.00
2018-08-25T16:22:47.672Z,14.00
2018-08-25T16:25:16.715Z,14.00
2018-08-25T16:27:45.707Z,14.00
2018-08-25T16:30:14.571Z,14.00
2018-08-25T16:32:43.343Z,14.00
2018-08-25T16:35:12.051Z,13.90
2018-08-25T16:37:40.815Z,13.90
2018-08-25T16:40:09.609Z,13.80
2018-08-25T16:42:38.543Z,13.80
2018-08-25T16:45:17.168Z,13.70
2018-08-25T16:47:45.929Z,13.70
2018-08-25T16:50:14.787Z,13.70
2018-08-25T16:52:43.570Z,13.70
2018-08-25T16:55:12.349Z,13.60
2018-08-25T16:57:41.154Z,13.50
2018-08-25T17:00:10.012Z,13.50
2018-08-25T17:02:38.864Z,13.50
2018-08-25T17:05:08.123Z,13.50
2018-08-25T17:07:37.615Z,13.40
2018-08-25T17:10:07.454Z,13.40
2018-08-25T17:12:36.866Z,13.30
2018-08-25T17:15:07.064Z,13.20
2018-08-25T17:17:36.770Z,13.20
2018-08-25T17:20:06.297Z,13.20
2018-08-25T17:22:35.783Z,13.20
2018-08-25T17:25:06.157Z,13.20
2018-08-25T17:27:35.811Z,13.30
2018-08-25T17:30:05.251Z,13.30
2018-08-25T17:32:34.460Z,13.30
2018-08-25T17:35:03.800Z,13.30
2018-08-25T17:37:33.230Z,13.30
2018-08-25T17:40:02.842Z,13.30
2018-08-25T17:42:32.293Z,13.20
2018-08-25T17:45:02.140Z,13.20
2018-08-25T17:47:32.092Z,13.20
2018-08-25T17:50:01.583Z,13.10
2018-08-25T17:52:31.936Z,13.00
2018-08-25T17:55:06.524Z,13.00
2018-08-25T17:57:35.941Z,12.90
2018-08-25T18:00:05.388Z,12.90
2018-08-25T18:02:34.461Z,12.90
2018-08-25T18:05:04.262Z,12.90
2018-08-25T18:07:33.518Z,13.00
2018-08-25T18:10:02.659Z,12.90
2018-08-25T18:12:31.973Z,12.80
2018-08-25T18:15:01.583Z,12.80
2018-08-25T18:17:30.720Z,12.80
2018-08-25T18:20:00.293Z,12.80
2018-08-25T18:22:46.604Z,12.80
2018-08-25T18:25:45.259Z,12.80
2018-08-25T18:28:20.848Z,12.80
2018-08-25T18:30:55.093Z,12.70
2018-08-25T18:33:31.468Z,12.60
2018-08-25T18:36:18.982Z,12.60
2018-08-25T18:38:52.424Z,12.60
2018-08-25T18:41:22.229Z,12.60
2018-08-25T18:44:13.455Z,12.60
2018-08-25T18:46:42.032Z,12.70
2018-08-25T18:49:10.919Z,12.70
2018-08-25T18:51:39.974Z,12.60
2018-08-25T18:54:08.986Z,12.60
2018-08-25T18:56:37.837Z,12.60
2018-08-25T18:59:07.027Z,12.60
2018-08-25T19:01:35.929Z,12.70
2018-08-25T19:04:04.955Z,12.70
2018-08-25T19:06:33.724Z,12.70
2018-08-25T19:09:02.713Z,12.70
2018-08-25T19:11:31.776Z,12.70
2018-08-25T19:14:00.968Z,12.80
2018-08-25T19:16:29.848Z,12.70
2018-08-25T19:18:58.539Z,12.70
2018-08-25T19:21:27.251Z,12.80
2018-08-25T19:23:55.971Z,12.80
2018-08-25T19:26:24.658Z,13.70
2018-08-25T19:28:53.299Z,12.70
2018-08-25T19:31:22.075Z,12.70
2018-08-25T19:33:50.979Z,12.70
2018-08-25T19:36:19.710Z,12.60
2018-08-25T19:38:48.402Z,12.60
2018-08-25T19:41:17.937Z,12.70
2018-08-25T19:43:46.563Z,12.70
2018-08-25T19:46:15.323Z,12.70
2018-08-25T19:48:44.204Z,12.60
2018-08-25T19:51:12.853Z,12.60
2018-08-25T19:53:41.491Z,12.60
2018-08-25T19:56:10.174Z,12.50
2018-08-25T19:58:39.562Z,12.40
2018-08-25T20:01:08.255Z,12.20
2018-08-25T20:03:36.983Z,12.30
2018-08-25T20:06:05.730Z,12.20
2018-08-25T20:08:34.463Z,12.20
2018-08-25T20:11:03.140Z,12.10
2018-08-25T20:13:32.054Z,12.00
2018-08-25T20:16:00.694Z,12.10
2018-08-25T20:18:29.661Z,12.10
2018-08-25T20:20:58.411Z,12.20
2018-08-25T20:23:27.071Z,12.20
2018-08-25T20:25:55.746Z,12.20
2018-08-25T20:28:24.438Z,12.20
2018-08-25T20:30:53.109Z,12.10
2018-08-25T20:33:21.751Z,12.10
2018-08-25T20:35:55.713Z,12.20
2018-08-25T20:38:24.367Z,12.20
2018-08-25T20:40:53.124Z,12.30
2018-08-25T20:43:21.851Z,12.30
2018-08-25T20:45:50.473Z,12.30
2018-08-25T20:48:19.196Z,12.30
2018-08-25T20:50:47.895Z,12.30
2018-08-25T20:53:16.618Z,12.30
2018-08-25T20:55:45.355Z,12.30
2018-08-25T20:58:14.338Z,12.30
2018-08-25T21:00:43.221Z,12.30
2018-08-25T21:03:11.960Z,12.20
2018-08-25T21:05:40.982Z,12.20
2018-08-25T21:08:09.668Z,12.20
2018-08-25T21:10:38.847Z,12.20
2018-08-25T21:13:07.863Z,12.00
2018-08-25T21:15:36.892Z,12.00
2018-08-25T21:18:05.739Z,12.00
2018-08-25T21:20:34.610Z,12.00
2018-08-25T21:23:03.328Z,12.00
2018-08-25T21:25:32.118Z,12.10
2018-08-25T21:28:00.784Z,12.10
2018-08-25T21:30:29.759Z,12.00
2018-08-25T21:32:58.991Z,12.00
2018-08-25T21:35:28.290Z,12.10
2018-08-25T21:37:56.995Z,12.10
2018-08-25T21:40:26.307Z,12.00
2018-08-25T21:42:54.907Z,12.00
2018-08-25T21:45:23.575Z,12.00
2018-08-25T21:47:52.316Z,12.00
2018-08-25T21:50:21.054Z,12.00
2018-08-25T21:52:49.730Z,12.00
2018-08-25T21:55:18.419Z,12.00
2018-08-25T21:57:47.154Z,12.00
2018-08-25T22:00:15.988Z,12.00
2018-08-25T22:02:44.694Z,12.00
2018-08-25T22:05:13.455Z,12.00
2018-08-25T22:07:42.357Z,12.10
2018-08-25T22:10:11.079Z,12.00
2018-08-25T22:12:39.812Z,12.00
2018-08-25T22:15:08.503Z,12.00
2018-08-25T22:17:37.250Z,12.00
2018-08-25T22:20:06.806Z,12.00
2018-08-25T22:22:35.635Z,12.00
2018-08-25T22:25:04.378Z,12.00
2018-08-25T22:27:33.174Z,12.00
2018-08-25T22:30:01.847Z,12.00
2018-08-25T22:32:30.592Z,11.90
2018-08-25T22:34:59.256Z,11.80
2018-08-25T22:37:27.936Z,11.80
2018-08-25T22:39:56.811Z,11.80
2018-08-25T22:42:25.491Z,11.70
2018-08-25T22:44:54.301Z,11.70
2018-08-25T22:47:23.019Z,11.70
2018-08-25T22:49:51.708Z,11.70
2018-08-25T22:52:24.561Z,11.70
2018-08-25T22:54:53.752Z,11.60
2018-08-25T22:57:22.464Z,11.60
2018-08-25T22:59:51.132Z,11.60
2018-08-25T23:02:19.854Z,11.60
2018-08-25T23:04:48.747Z,11.60
2018-08-25T23:07:17.498Z,11.60
2018-08-25T23:09:46.202Z,11.60
2018-08-25T23:12:14.786Z,11.60
2018-08-25T23:14:43.439Z,11.70
2018-08-25T23:17:12.236Z,11.70
2018-08-25T23:19:40.934Z,11.70
2018-08-25T23:22:09.658Z,11.60
2018-08-25T23:24:38.513Z,11.60
2018-08-25T23:27:07.395Z,11.60
2018-08-25T23:29:36.167Z,11.50
2018-08-25T23:32:04.907Z,11.60
2018-08-25T23:34:34.299Z,11.60
2018-08-25T23:37:02.959Z,11.60
2018-08-25T23:39:31.635Z,11.50
2018-08-25T23:42:00.468Z,11.50
2018-08-25T23:44:29.292Z,11.60
2018-08-25T23:46:57.971Z,11.60
2018-08-25T23:49:26.830Z,11.50
2018-08-25T23:51:55.544Z,11.50
2018-08-25T23:54:24.344Z,11.50
2018-08-25T23:56:52.951Z,11.60
2018-08-25T23:59:21.675Z,11.60
